sensor_id;sensor_type;location;lat;lon;timestamp;temperature;humidity
47857;DHT22;33618;49.972;8.242;2022-12-07T00:01:33;3.50;99.90
47857;DHT22;33618;49.972;8.242;2022-12-07T00:04:02;3.50;99.90
47857;DHT22;33618;49.972;8.242;2022-12-07T00:06:35;3.70;99.90
47857;DHT22;33618;49.972;8.242;2022-12-07T00:09:03;3.70;99.90
47857;DHT22;33618;49.972;8.242;2022-12-07T00:11:31;3.70;99.90
47857;DHT22;33618;49.972;8.242;2022-12-07T00:14:00;3.70;99.90
47857;DHT22;33618;49.972;8.242;2022-12-07T00:16:29;3.70;99.90
47857;DHT22;33618;49.972;8.242;2022-12-07T00:18:57;3.70;99.90
47857;DHT22;33618;49.972;8.242;2022-12-07T00:21:27;3.70;99.90
47857;DHT22;33618;49.972;8.242;2022-12-07T00:23:55;3.60;99.90
47857;DHT22;33618;49.972;8.242;2022-12-07T00:26:25;3.50;99.90
47857;DHT22;33618;49.972;8.242;2022-12-07T00:28:56;3.50;99.90
47857;DHT22;33618;49.972;8.242;2022-12-07T00:31:26;3.50;99.90
47857;DHT22;33618;49.972;8.242;2022-12-07T00:33:53;3.60;99.90
47857;DHT22;33618;49.972;8.242;2022-12-07T00:36:22;3.60;99.90
47857;DHT22;33618;49.972;8.242;2022-12-07T00:38:54;3.50;99.90
47857;DHT22;33618;49.972;8.242;2022-12-07T00:41:22;3.50;99.90
47857;DHT22;33618;49.972;8.242;2022-12-07T00:43:50;3.50;99.90
47857;DHT22;33618;49.972;8.242;2022-12-07T00:46:18;3.50;99.90
47857;DHT22;33618;49.972;8.242;2022-12-07T00:48:46;3.50;99.90
47857;DHT22;33618;49.972;8.242;2022-12-07T00:51:15;3.50;99.90
47857;DHT22;33618;49.972;8.242;2022-12-07T00:53:42;3.60;99.90
47857;DHT22;33618;49.972;8.242;2022-12-07T00:56:13;3.50;99.90
47857;DHT22;33618;49.972;8.242;2022-12-07T00:58:40;3.50;99.90
47857;DHT22;33618;49.972;8.242;2022-12-07T01:01:09;3.50;99.90
47857;DHT22;33618;49.972;8.242;2022-12-07T01:03:43;3.40;99.90
47857;DHT22;33618;49.972;8.242;2022-12-07T01:06:17;3.40;99.90
47857;DHT22;33618;49.972;8.242;2022-12-07T01:08:45;3.40;99.90
47857;DHT22;33618;49.972;8.242;2022-12-07T01:11:14;3.50;99.90
47857;DHT22;33618;49.972;8.242;2022-12-07T01:13:42;3.50;99.90
47857;DHT22;33618;49.972;8.242;2022-12-07T01:16:11;3.40;99.90
47857;DHT22;33618;49.972;8.242;2022-12-07T01:18:39;3.40;99.90
47857;DHT22;33618;49.972;8.242;2022-12-07T01:21:11;3.50;99.90
47857;DHT22;33618;49.972;8.242;2022-12-07T01:23:39;3.50;99.90
47857;DHT22;33618;49.972;8.242;2022-12-07T01:26:09;3.50;99.90
47857;DHT22;33618;49.972;8.242;2022-12-07T01:28:36;3.50;99.90
47857;DHT22;33618;49.972;8.242;2022-12-07T01:31:09;3.50;99.90
47857;DHT22;33618;49.972;8.242;2022-12-07T01:33:43;3.40;99.90
47857;DHT22;33618;49.972;8.242;2022-12-07T01:36:15;3.30;99.90
47857;DHT22;33618;49.972;8.242;2022-12-07T01:38:44;3.30;99.90
47857;DHT22;33618;49.972;8.242;2022-12-07T01:41:11;3.30;99.90
47857;DHT22;33618;49.972;8.242;2022-12-07T01:46:36;3.30;99.90
47857;DHT22;33618;49.972;8.242;2022-12-07T01:49:08;3.30;99.90
47857;DHT22;33618;49.972;8.242;2022-12-07T01:51:37;3.30;99.90
47857;DHT22;33618;49.972;8.242;2022-12-07T01:54:05;3.30;99.90
47857;DHT22;33618;49.972;8.242;2022-12-07T01:56:32;3.30;99.90
47857;DHT22;33618;49.972;8.242;2022-12-07T01:59:00;3.40;99.90
47857;DHT22;33618;49.972;8.242;2022-12-07T02:01:28;3.40;99.90
47857;DHT22;33618;49.972;8.242;2022-12-07T02:03:55;3.40;99.90
47857;DHT22;33618;49.972;8.242;2022-12-07T02:06:24;3.40;99.90
47857;DHT22;33618;49.972;8.242;2022-12-07T02:08:52;3.40;99.90
47857;DHT22;33618;49.972;8.242;2022-12-07T02:11:20;3.40;99.90
47857;DHT22;33618;49.972;8.242;2022-12-07T02:13:47;3.40;99.90
47857;DHT22;33618;49.972;8.242;2022-12-07T02:28:22;3.50;99.90
47857;DHT22;33618;49.972;8.242;2022-12-07T02:30:55;3.50;99.90
47857;DHT22;33618;49.972;8.242;2022-12-07T02:33:44;3.50;99.90
47857;DHT22;33618;49.972;8.242;2022-12-07T02:36:26;3.50;99.90
47857;DHT22;33618;49.972;8.242;2022-12-07T02:38:59;3.50;99.90
47857;DHT22;33618;49.972;8.242;2022-12-07T02:41:38;3.50;99.90
47857;DHT22;33618;49.972;8.242;2022-12-07T02:44:10;3.50;99.90
47857;DHT22;33618;49.972;8.242;2022-12-07T02:46:46;3.50;99.90
47857;DHT22;33618;49.972;8.242;2022-12-07T02:49:15;3.60;99.90
47857;DHT22;33618;49.972;8.242;2022-12-07T02:51:44;3.50;99.90
47857;DHT22;33618;49.972;8.242;2022-12-07T02:54:14;3.50;99.90
47857;DHT22;33618;49.972;8.242;2022-12-07T02:56:49;3.60;99.90
47857;DHT22;33618;49.972;8.242;2022-12-07T03:08:13;3.60;99.90
47857;DHT22;33618;49.972;8.242;2022-12-07T03:13:47;3.70;99.90
47857;DHT22;33618;49.972;8.242;2022-12-07T03:16:21;3.70;99.90
47857;DHT22;33618;49.972;8.242;2022-12-07T03:22:32;3.70;99.90
47857;DHT22;33618;49.972;8.242;2022-12-07T03:25:08;3.70;99.90
47857;DHT22;33618;49.972;8.242;2022-12-07T03:27:49;3.80;99.90
47857;DHT22;33618;49.972;8.242;2022-12-07T03:33:38;3.80;99.90
47857;DHT22;33618;49.972;8.242;2022-12-07T03:36:14;3.80;99.90
47857;DHT22;33618;49.972;8.242;2022-12-07T03:38:54;3.80;99.90
47857;DHT22;33618;49.972;8.242;2022-12-07T03:41:25;3.80;99.90
47857;DHT22;33618;49.972;8.242;2022-12-07T03:43:54;3.90;99.90
47857;DHT22;33618;49.972;8.242;2022-12-07T03:49:21;3.90;99.90
47857;DHT22;33618;49.972;8.242;2022-12-07T03:52:19;3.90;99.90
47857;DHT22;33618;49.972;8.242;2022-12-07T03:54:56;3.90;99.90
47857;DHT22;33618;49.972;8.242;2022-12-07T03:57:26;4.00;99.90
47857;DHT22;33618;49.972;8.242;2022-12-07T03:59:55;4.00;99.90
47857;DHT22;33618;49.972;8.242;2022-12-07T04:22:13;4.10;99.90
47857;DHT22;33618;49.972;8.242;2022-12-07T04:24:40;3.90;99.90
47857;DHT22;33618;49.972;8.242;2022-12-07T04:27:07;3.80;99.90
47857;DHT22;33618;49.972;8.242;2022-12-07T04:29:34;3.80;99.90
47857;DHT22;33618;49.972;8.242;2022-12-07T04:32:01;3.90;99.90
47857;DHT22;33618;49.972;8.242;2022-12-07T04:34:27;4.00;99.90
47857;DHT22;33618;49.972;8.242;2022-12-07T04:36:54;4.10;99.90
47857;DHT22;33618;49.972;8.242;2022-12-07T04:39:27;4.10;99.90
47857;DHT22;33618;49.972;8.242;2022-12-07T04:41:54;4.10;99.90
47857;DHT22;33618;49.972;8.242;2022-12-07T04:44:22;4.10;99.90
47857;DHT22;33618;49.972;8.242;2022-12-07T04:46:50;4.10;99.90
47857;DHT22;33618;49.972;8.242;2022-12-07T04:49:17;4.10;99.90
47857;DHT22;33618;49.972;8.242;2022-12-07T04:51:45;4.10;99.90
47857;DHT22;33618;49.972;8.242;2022-12-07T04:54:12;4.10;99.90
47857;DHT22;33618;49.972;8.242;2022-12-07T04:56:40;4.10;99.90
47857;DHT22;33618;49.972;8.242;2022-12-07T04:59:07;4.10;99.90
47857;DHT22;33618;49.972;8.242;2022-12-07T05:01:34;4.10;99.90
47857;DHT22;33618;49.972;8.242;2022-12-07T05:04:01;4.20;99.90
47857;DHT22;33618;49.972;8.242;2022-12-07T05:06:28;4.20;99.90
47857;DHT22;33618;49.972;8.242;2022-12-07T05:08:55;4.20;99.90
47857;DHT22;33618;49.972;8.242;2022-12-07T05:11:22;4.20;99.90
47857;DHT22;33618;49.972;8.242;2022-12-07T05:14:17;4.20;99.90
47857;DHT22;33618;49.972;8.242;2022-12-07T05:16:46;4.20;99.90
47857;DHT22;33618;49.972;8.242;2022-12-07T05:19:13;4.20;99.90
47857;DHT22;33618;49.972;8.242;2022-12-07T05:38:32;4.20;99.90
47857;DHT22;33618;49.972;8.242;2022-12-07T05:41:03;4.20;99.90
47857;DHT22;33618;49.972;8.242;2022-12-07T05:43:32;4.20;99.90
47857;DHT22;33618;49.972;8.242;2022-12-07T05:45:59;4.20;99.90
47857;DHT22;33618;49.972;8.242;2022-12-07T05:48:26;4.30;99.90
47857;DHT22;33618;49.972;8.242;2022-12-07T05:50:53;4.20;99.90
47857;DHT22;33618;49.972;8.242;2022-12-07T05:53:20;4.20;99.90
47857;DHT22;33618;49.972;8.242;2022-12-07T05:55:49;4.20;99.90
47857;DHT22;33618;49.972;8.242;2022-12-07T06:09:42;4.30;99.90
47857;DHT22;33618;49.972;8.242;2022-12-07T06:12:13;4.30;99.90
47857;DHT22;33618;49.972;8.242;2022-12-07T06:14:59;4.30;99.90
47857;DHT22;33618;49.972;8.242;2022-12-07T06:17:26;4.30;99.90
47857;DHT22;33618;49.972;8.242;2022-12-07T06:19:53;4.30;99.90
47857;DHT22;33618;49.972;8.242;2022-12-07T06:22:20;4.20;99.90
47857;DHT22;33618;49.972;8.242;2022-12-07T06:24:47;4.20;99.90
47857;DHT22;33618;49.972;8.242;2022-12-07T06:28:11;4.20;99.90
47857;DHT22;33618;49.972;8.242;2022-12-07T06:30:38;4.20;99.90
47857;DHT22;33618;49.972;8.242;2022-12-07T06:33:04;4.20;99.90
47857;DHT22;33618;49.972;8.242;2022-12-07T06:35:32;4.20;99.90
47857;DHT22;33618;49.972;8.242;2022-12-07T06:37:59;4.20;99.90
47857;DHT22;33618;49.972;8.242;2022-12-07T06:40:26;4.30;99.90
47857;DHT22;33618;49.972;8.242;2022-12-07T06:42:53;4.30;99.90
47857;DHT22;33618;49.972;8.242;2022-12-07T06:45:20;4.30;99.90
47857;DHT22;33618;49.972;8.242;2022-12-07T06:47:50;4.40;99.90
47857;DHT22;33618;49.972;8.242;2022-12-07T06:50:17;4.40;99.90
47857;DHT22;33618;49.972;8.242;2022-12-07T06:52:44;4.30;99.90
47857;DHT22;33618;49.972;8.242;2022-12-07T06:55:12;4.30;99.90
47857;DHT22;33618;49.972;8.242;2022-12-07T06:57:39;4.20;99.90
47857;DHT22;33618;49.972;8.242;2022-12-07T07:00:06;4.20;99.90
47857;DHT22;33618;49.972;8.242;2022-12-07T07:02:34;4.10;99.90
47857;DHT22;33618;49.972;8.242;2022-12-07T07:05:02;4.10;99.90
47857;DHT22;33618;49.972;8.242;2022-12-07T07:07:29;4.10;99.90
47857;DHT22;33618;49.972;8.242;2022-12-07T07:09:57;4.20;99.90
47857;DHT22;33618;49.972;8.242;2022-12-07T07:12:24;4.30;99.90
47857;DHT22;33618;49.972;8.242;2022-12-07T07:14:51;4.30;99.90
47857;DHT22;33618;49.972;8.242;2022-12-07T07:17:18;4.40;99.90
47857;DHT22;33618;49.972;8.242;2022-12-07T07:19:45;4.40;99.90
47857;DHT22;33618;49.972;8.242;2022-12-07T07:22:12;4.40;99.90
47857;DHT22;33618;49.972;8.242;2022-12-07T07:24:39;4.50;99.90
47857;DHT22;33618;49.972;8.242;2022-12-07T07:27:06;4.50;99.90
47857;DHT22;33618;49.972;8.242;2022-12-07T07:29:33;4.50;99.90
47857;DHT22;33618;49.972;8.242;2022-12-07T07:32:00;4.50;99.90
47857;DHT22;33618;49.972;8.242;2022-12-07T07:34:32;4.50;99.90
47857;DHT22;33618;49.972;8.242;2022-12-07T07:37:00;4.60;99.90
47857;DHT22;33618;49.972;8.242;2022-12-07T07:39:27;4.60;99.90
47857;DHT22;33618;49.972;8.242;2022-12-07T07:41:54;4.60;99.90
47857;DHT22;33618;49.972;8.242;2022-12-07T07:49:33;4.70;99.90
47857;DHT22;33618;49.972;8.242;2022-12-07T07:52:00;4.60;99.90
47857;DHT22;33618;49.972;8.242;2022-12-07T07:54:27;4.70;99.90
47857;DHT22;33618;49.972;8.242;2022-12-07T07:56:54;4.70;99.90
47857;DHT22;33618;49.972;8.242;2022-12-07T07:59:21;4.70;99.90
47857;DHT22;33618;49.972;8.242;2022-12-07T08:01:48;4.70;99.90
47857;DHT22;33618;49.972;8.242;2022-12-07T08:04:15;4.70;99.90
47857;DHT22;33618;49.972;8.242;2022-12-07T08:06:43;4.70;99.90
47857;DHT22;33618;49.972;8.242;2022-12-07T08:09:10;4.70;99.90
47857;DHT22;33618;49.972;8.242;2022-12-07T08:11:37;4.80;99.90
47857;DHT22;33618;49.972;8.242;2022-12-07T08:14:04;4.80;99.90
47857;DHT22;33618;49.972;8.242;2022-12-07T08:16:33;4.80;99.90
47857;DHT22;33618;49.972;8.242;2022-12-07T08:19:00;4.90;99.90
47857;DHT22;33618;49.972;8.242;2022-12-07T08:21:27;4.90;99.90
47857;DHT22;33618;49.972;8.242;2022-12-07T08:23:54;4.90;99.90
47857;DHT22;33618;49.972;8.242;2022-12-07T08:26:22;4.90;99.90
47857;DHT22;33618;49.972;8.242;2022-12-07T08:28:49;4.90;99.90
47857;DHT22;33618;49.972;8.242;2022-12-07T08:31:17;5.00;99.90
47857;DHT22;33618;49.972;8.242;2022-12-07T08:33:47;5.00;99.90
47857;DHT22;33618;49.972;8.242;2022-12-07T08:36:15;5.00;99.90
47857;DHT22;33618;49.972;8.242;2022-12-07T08:38:45;5.00;99.90
47857;DHT22;33618;49.972;8.242;2022-12-07T08:41:35;5.10;99.90
47857;DHT22;33618;49.972;8.242;2022-12-07T08:44:02;5.10;99.90
47857;DHT22;33618;49.972;8.242;2022-12-07T08:46:38;5.20;99.90
47857;DHT22;33618;49.972;8.242;2022-12-07T08:49:13;5.20;99.90
47857;DHT22;33618;49.972;8.242;2022-12-07T08:51:44;5.30;99.90
47857;DHT22;33618;49.972;8.242;2022-12-07T08:54:16;5.40;99.90
47857;DHT22;33618;49.972;8.242;2022-12-07T08:56:49;5.40;99.90
47857;DHT22;33618;49.972;8.242;2022-12-07T08:59:27;5.40;99.90
47857;DHT22;33618;49.972;8.242;2022-12-07T09:01:55;5.30;99.90
47857;DHT22;33618;49.972;8.242;2022-12-07T09:04:22;5.30;99.90
47857;DHT22;33618;49.972;8.242;2022-12-07T09:06:50;5.40;99.90
47857;DHT22;33618;49.972;8.242;2022-12-07T09:09:21;5.40;99.90
47857;DHT22;33618;49.972;8.242;2022-12-07T09:11:48;5.50;99.90
47857;DHT22;33618;49.972;8.242;2022-12-07T09:14:15;5.60;99.90
47857;DHT22;33618;49.972;8.242;2022-12-07T09:16:44;5.70;99.90
47857;DHT22;33618;49.972;8.242;2022-12-07T09:19:11;5.90;99.90
47857;DHT22;33618;49.972;8.242;2022-12-07T09:21:42;5.90;99.90
47857;DHT22;33618;49.972;8.242;2022-12-07T09:24:12;5.90;99.90
47857;DHT22;33618;49.972;8.242;2022-12-07T09:26:41;5.80;99.90
47857;DHT22;33618;49.972;8.242;2022-12-07T09:29:14;5.90;99.90
47857;DHT22;33618;49.972;8.242;2022-12-07T09:31:42;6.00;99.90
47857;DHT22;33618;49.972;8.242;2022-12-07T09:34:11;6.20;99.90
47857;DHT22;33618;49.972;8.242;2022-12-07T09:36:41;6.30;99.90
47857;DHT22;33618;49.972;8.242;2022-12-07T09:39:18;6.30;99.90
47857;DHT22;33618;49.972;8.242;2022-12-07T09:41:46;6.50;99.90
47857;DHT22;33618;49.972;8.242;2022-12-07T09:44:25;6.60;99.90
47857;DHT22;33618;49.972;8.242;2022-12-07T09:46:55;6.60;99.90
47857;DHT22;33618;49.972;8.242;2022-12-07T09:49:33;6.60;99.90
47857;DHT22;33618;49.972;8.242;2022-12-07T09:54:46;6.90;99.90
47857;DHT22;33618;49.972;8.242;2022-12-07T09:57:25;6.90;99.90
47857;DHT22;33618;49.972;8.242;2022-12-07T10:00:01;6.90;99.90
47857;DHT22;33618;49.972;8.242;2022-12-07T10:02:39;6.90;99.90
47857;DHT22;33618;49.972;8.242;2022-12-07T10:05:18;6.90;99.90
47857;DHT22;33618;49.972;8.242;2022-12-07T10:07:50;6.70;99.90
47857;DHT22;33618;49.972;8.242;2022-12-07T10:10:32;6.60;99.90
47857;DHT22;33618;49.972;8.242;2022-12-07T10:13:10;6.40;99.90
47857;DHT22;33618;49.972;8.242;2022-12-07T10:18:34;6.40;99.90
47857;DHT22;33618;49.972;8.242;2022-12-07T10:21:16;6.40;99.90
47857;DHT22;33618;49.972;8.242;2022-12-07T10:24:02;6.40;99.90
47857;DHT22;33618;49.972;8.242;2022-12-07T10:26:31;6.50;99.90
47857;DHT22;33618;49.972;8.242;2022-12-07T10:29:03;6.50;99.90
47857;DHT22;33618;49.972;8.242;2022-12-07T10:31:31;6.40;99.90
47857;DHT22;33618;49.972;8.242;2022-12-07T10:34:00;6.40;99.90
47857;DHT22;33618;49.972;8.242;2022-12-07T10:36:38;6.50;99.90
47857;DHT22;33618;49.972;8.242;2022-12-07T10:39:15;6.70;99.90
47857;DHT22;33618;49.972;8.242;2022-12-07T10:41:55;6.80;99.90
47857;DHT22;33618;49.972;8.242;2022-12-07T10:44:28;7.10;99.90
47857;DHT22;33618;49.972;8.242;2022-12-07T10:56:24;7.40;99.90
47857;DHT22;33618;49.972;8.242;2022-12-07T10:59:14;7.20;99.90
47857;DHT22;33618;49.972;8.242;2022-12-07T11:01:47;6.90;99.90
47857;DHT22;33618;49.972;8.242;2022-12-07T11:04:49;6.80;99.90
47857;DHT22;33618;49.972;8.242;2022-12-07T11:10:18;6.60;99.90
47857;DHT22;33618;49.972;8.242;2022-12-07T11:18:03;7.50;99.90
47857;DHT22;33618;49.972;8.242;2022-12-07T11:31:58;7.30;99.90
47857;DHT22;33618;49.972;8.242;2022-12-07T11:37:36;7.30;99.90
47857;DHT22;33618;49.972;8.242;2022-12-07T11:40:33;7.40;99.90
47857;DHT22;33618;49.972;8.242;2022-12-07T11:43:18;7.30;99.90
47857;DHT22;33618;49.972;8.242;2022-12-07T11:46:09;7.30;99.90
47857;DHT22;33618;49.972;8.242;2022-12-07T11:48:41;7.40;99.90
47857;DHT22;33618;49.972;8.242;2022-12-07T11:51:12;7.30;99.90
47857;DHT22;33618;49.972;8.242;2022-12-07T11:53:46;7.30;99.90
47857;DHT22;33618;49.972;8.242;2022-12-07T11:56:17;7.10;99.90
47857;DHT22;33618;49.972;8.242;2022-12-07T11:58:57;7.10;99.90
47857;DHT22;33618;49.972;8.242;2022-12-07T12:06:55;6.80;99.90
47857;DHT22;33618;49.972;8.242;2022-12-07T12:09:39;6.60;99.90
47857;DHT22;33618;49.972;8.242;2022-12-07T12:23:00;6.70;99.90
47857;DHT22;33618;49.972;8.242;2022-12-07T12:25:34;6.70;99.90
47857;DHT22;33618;49.972;8.242;2022-12-07T12:28:02;7.10;99.90
47857;DHT22;33618;49.972;8.242;2022-12-07T12:33:14;7.70;99.90
47857;DHT22;33618;49.972;8.242;2022-12-07T12:35:42;7.50;99.90
47857;DHT22;33618;49.972;8.242;2022-12-07T12:40:51;7.10;99.90
47857;DHT22;33618;49.972;8.242;2022-12-07T12:43:42;7.00;99.90
47857;DHT22;33618;49.972;8.242;2022-12-07T12:51:43;6.90;99.90
47857;DHT22;33618;49.972;8.242;2022-12-07T12:54:36;7.50;99.90
47857;DHT22;33618;49.972;8.242;2022-12-07T12:57:15;8.00;99.90
47857;DHT22;33618;49.972;8.242;2022-12-07T13:15:53;10.00;96.20
47857;DHT22;33618;49.972;8.242;2022-12-07T13:18:39;10.20;94.40
47857;DHT22;33618;49.972;8.242;2022-12-07T13:31:58;11.00;93.10
47857;DHT22;33618;49.972;8.242;2022-12-07T13:37:08;11.30;91.90
47857;DHT22;33618;49.972;8.242;2022-12-07T13:39:49;11.00;91.40
47857;DHT22;33618;49.972;8.242;2022-12-07T13:42:27;10.30;92.40
47857;DHT22;33618;49.972;8.242;2022-12-07T13:44:56;10.30;92.60
47857;DHT22;33618;49.972;8.242;2022-12-07T13:47:43;10.20;93.40
47857;DHT22;33618;49.972;8.242;2022-12-07T13:50:29;10.30;92.60
47857;DHT22;33618;49.972;8.242;2022-12-07T13:52:58;9.70;93.20
47857;DHT22;33618;49.972;8.242;2022-12-07T13:55:26;9.20;94.80
47857;DHT22;33618;49.972;8.242;2022-12-07T14:28:36;7.20;99.90
47857;DHT22;33618;49.972;8.242;2022-12-07T14:31:17;7.10;99.90
47857;DHT22;33618;49.972;8.242;2022-12-07T14:36:53;7.00;99.90
47857;DHT22;33618;49.972;8.242;2022-12-07T14:39:20;7.20;99.90
47857;DHT22;33618;49.972;8.242;2022-12-07T14:41:47;7.60;99.90
47857;DHT22;33618;49.972;8.242;2022-12-07T14:44:19;7.80;99.90
47857;DHT22;33618;49.972;8.242;2022-12-07T14:46:51;7.80;99.90
47857;DHT22;33618;49.972;8.242;2022-12-07T14:49:39;7.60;99.90
47857;DHT22;33618;49.972;8.242;2022-12-07T14:52:19;7.20;99.90
47857;DHT22;33618;49.972;8.242;2022-12-07T14:55:30;7.00;99.90
47857;DHT22;33618;49.972;8.242;2022-12-07T14:57:59;6.50;99.90
47857;DHT22;33618;49.972;8.242;2022-12-07T15:00:27;6.30;99.90
47857;DHT22;33618;49.972;8.242;2022-12-07T15:02:55;6.20;99.90
47857;DHT22;33618;49.972;8.242;2022-12-07T15:05:23;6.10;99.90
47857;DHT22;33618;49.972;8.242;2022-12-07T15:07:50;6.10;99.90
47857;DHT22;33618;49.972;8.242;2022-12-07T15:10:21;6.10;99.90
47857;DHT22;33618;49.972;8.242;2022-12-07T15:12:50;6.20;99.90
47857;DHT22;33618;49.972;8.242;2022-12-07T15:15:18;6.20;99.90
47857;DHT22;33618;49.972;8.242;2022-12-07T15:17:45;6.20;99.90
47857;DHT22;33618;49.972;8.242;2022-12-07T15:20:14;6.20;99.90
47857;DHT22;33618;49.972;8.242;2022-12-07T15:22:41;6.30;99.90
47857;DHT22;33618;49.972;8.242;2022-12-07T15:25:12;6.40;99.90
47857;DHT22;33618;49.972;8.242;2022-12-07T15:27:39;6.40;99.90
47857;DHT22;33618;49.972;8.242;2022-12-07T15:30:07;6.30;99.90
47857;DHT22;33618;49.972;8.242;2022-12-07T15:32:34;6.30;99.90
47857;DHT22;33618;49.972;8.242;2022-12-07T15:35:01;6.20;99.90
47857;DHT22;33618;49.972;8.242;2022-12-07T15:37:29;6.10;99.90
47857;DHT22;33618;49.972;8.242;2022-12-07T15:39:56;6.10;99.90
47857;DHT22;33618;49.972;8.242;2022-12-07T15:42:29;6.10;99.90
47857;DHT22;33618;49.972;8.242;2022-12-07T15:44:56;6.10;99.90
47857;DHT22;33618;49.972;8.242;2022-12-07T15:47:36;6.00;99.90
47857;DHT22;33618;49.972;8.242;2022-12-07T15:50:24;6.00;99.90
47857;DHT22;33618;49.972;8.242;2022-12-07T15:52:52;5.90;99.90
47857;DHT22;33618;49.972;8.242;2022-12-07T15:55:19;6.00;99.90
47857;DHT22;33618;49.972;8.242;2022-12-07T15:57:46;5.90;99.90
47857;DHT22;33618;49.972;8.242;2022-12-07T16:00:13;5.90;99.90
47857;DHT22;33618;49.972;8.242;2022-12-07T16:02:40;5.70;99.90
47857;DHT22;33618;49.972;8.242;2022-12-07T16:05:08;5.70;99.90
47857;DHT22;33618;49.972;8.242;2022-12-07T16:07:35;5.60;99.90
47857;DHT22;33618;49.972;8.242;2022-12-07T16:10:03;5.50;99.90
47857;DHT22;33618;49.972;8.242;2022-12-07T16:12:30;5.40;99.90
47857;DHT22;33618;49.972;8.242;2022-12-07T16:14:57;5.30;99.90
47857;DHT22;33618;49.972;8.242;2022-12-07T16:17:26;5.30;99.90
47857;DHT22;33618;49.972;8.242;2022-12-07T16:19:53;5.20;99.90
47857;DHT22;33618;49.972;8.242;2022-12-07T16:22:21;5.20;99.90
47857;DHT22;33618;49.972;8.242;2022-12-07T16:24:48;5.20;99.90
47857;DHT22;33618;49.972;8.242;2022-12-07T16:27:15;5.10;99.90
47857;DHT22;33618;49.972;8.242;2022-12-07T16:29:43;5.10;99.90
47857;DHT22;33618;49.972;8.242;2022-12-07T16:32:10;5.10;99.90
47857;DHT22;33618;49.972;8.242;2022-12-07T16:34:39;5.00;99.90
47857;DHT22;33618;49.972;8.242;2022-12-07T16:37:06;5.10;99.90
47857;DHT22;33618;49.972;8.242;2022-12-07T16:39:33;5.00;99.90
47857;DHT22;33618;49.972;8.242;2022-12-07T16:42:01;5.00;99.90
47857;DHT22;33618;49.972;8.242;2022-12-07T16:44:30;5.00;99.90
47857;DHT22;33618;49.972;8.242;2022-12-07T16:46:58;5.00;99.90
47857;DHT22;33618;49.972;8.242;2022-12-07T16:49:26;5.00;99.90
47857;DHT22;33618;49.972;8.242;2022-12-07T16:51:54;5.00;99.90
47857;DHT22;33618;49.972;8.242;2022-12-07T16:54:41;5.00;99.90
47857;DHT22;33618;49.972;8.242;2022-12-07T16:57:09;5.00;99.90
47857;DHT22;33618;49.972;8.242;2022-12-07T16:59:36;5.00;99.90
47857;DHT22;33618;49.972;8.242;2022-12-07T17:02:03;5.00;99.90
47857;DHT22;33618;49.972;8.242;2022-12-07T17:04:30;5.00;99.90
47857;DHT22;33618;49.972;8.242;2022-12-07T17:06:58;5.00;99.90
47857;DHT22;33618;49.972;8.242;2022-12-07T17:09:26;5.00;99.90
47857;DHT22;33618;49.972;8.242;2022-12-07T17:11:52;5.10;99.90
47857;DHT22;33618;49.972;8.242;2022-12-07T17:14:19;5.10;99.90
47857;DHT22;33618;49.972;8.242;2022-12-07T17:17:05;5.10;99.90
47857;DHT22;33618;49.972;8.242;2022-12-07T17:19:32;5.10;99.90
47857;DHT22;33618;49.972;8.242;2022-12-07T17:21:59;5.10;99.90
47857;DHT22;33618;49.972;8.242;2022-12-07T17:24:26;5.10;99.90
47857;DHT22;33618;49.972;8.242;2022-12-07T17:26:54;5.10;99.90
47857;DHT22;33618;49.972;8.242;2022-12-07T17:36:57;5.20;99.90
47857;DHT22;33618;49.972;8.242;2022-12-07T17:39:25;5.20;99.90
47857;DHT22;33618;49.972;8.242;2022-12-07T17:41:52;5.10;99.90
47857;DHT22;33618;49.972;8.242;2022-12-07T17:44:37;5.10;99.90
47857;DHT22;33618;49.972;8.242;2022-12-07T17:47:04;5.10;99.90
47857;DHT22;33618;49.972;8.242;2022-12-07T17:49:33;5.10;99.90
47857;DHT22;33618;49.972;8.242;2022-12-07T17:52:00;5.10;99.90
47857;DHT22;33618;49.972;8.242;2022-12-07T17:54:46;5.10;99.90
47857;DHT22;33618;49.972;8.242;2022-12-07T17:57:13;5.10;99.90
47857;DHT22;33618;49.972;8.242;2022-12-07T17:59:40;5.10;99.90
47857;DHT22;33618;49.972;8.242;2022-12-07T18:02:09;5.10;99.90
47857;DHT22;33618;49.972;8.242;2022-12-07T18:04:36;5.10;99.90
47857;DHT22;33618;49.972;8.242;2022-12-07T18:07:03;5.10;99.90
47857;DHT22;33618;49.972;8.242;2022-12-07T18:09:32;5.10;99.90
47857;DHT22;33618;49.972;8.242;2022-12-07T18:12:01;5.10;99.90
47857;DHT22;33618;49.972;8.242;2022-12-07T18:14:28;5.10;99.90
47857;DHT22;33618;49.972;8.242;2022-12-07T18:16:55;5.00;99.90
47857;DHT22;33618;49.972;8.242;2022-12-07T18:19:23;5.00;99.90
47857;DHT22;33618;49.972;8.242;2022-12-07T18:21:50;4.90;99.90
47857;DHT22;33618;49.972;8.242;2022-12-07T18:24:18;5.00;99.90
47857;DHT22;33618;49.972;8.242;2022-12-07T18:26:45;5.00;99.90
47857;DHT22;33618;49.972;8.242;2022-12-07T18:29:16;5.00;99.90
47857;DHT22;33618;49.972;8.242;2022-12-07T18:31:44;5.00;99.90
47857;DHT22;33618;49.972;8.242;2022-12-07T18:34:16;5.00;99.90
47857;DHT22;33618;49.972;8.242;2022-12-07T18:36:45;4.90;99.90
47857;DHT22;33618;49.972;8.242;2022-12-07T18:39:14;5.00;99.90
47857;DHT22;33618;49.972;8.242;2022-12-07T18:41:42;4.90;99.90
47857;DHT22;33618;49.972;8.242;2022-12-07T18:44:09;4.90;99.90
47857;DHT22;33618;49.972;8.242;2022-12-07T18:46:39;4.90;99.90
47857;DHT22;33618;49.972;8.242;2022-12-07T18:49:12;4.90;99.90
47857;DHT22;33618;49.972;8.242;2022-12-07T18:51:41;4.90;99.90
47857;DHT22;33618;49.972;8.242;2022-12-07T18:54:08;4.90;99.90
47857;DHT22;33618;49.972;8.242;2022-12-07T18:56:36;4.80;99.90
47857;DHT22;33618;49.972;8.242;2022-12-07T18:59:04;4.80;99.90
47857;DHT22;33618;49.972;8.242;2022-12-07T19:01:52;4.80;99.90
47857;DHT22;33618;49.972;8.242;2022-12-07T19:04:20;4.70;99.90
47857;DHT22;33618;49.972;8.242;2022-12-07T19:06:48;4.70;99.90
47857;DHT22;33618;49.972;8.242;2022-12-07T19:09:16;4.70;99.90
47857;DHT22;33618;49.972;8.242;2022-12-07T19:11:44;4.70;99.90
47857;DHT22;33618;49.972;8.242;2022-12-07T19:16:56;4.70;99.90
47857;DHT22;33618;49.972;8.242;2022-12-07T19:19:30;4.80;99.90
47857;DHT22;33618;49.972;8.242;2022-12-07T19:21:58;4.80;99.90
47857;DHT22;33618;49.972;8.242;2022-12-07T19:24:25;4.80;99.90
47857;DHT22;33618;49.972;8.242;2022-12-07T19:26:52;4.80;99.90
47857;DHT22;33618;49.972;8.242;2022-12-07T19:29:19;4.80;99.90
47857;DHT22;33618;49.972;8.242;2022-12-07T19:31:47;4.80;99.90
47857;DHT22;33618;49.972;8.242;2022-12-07T19:34:15;4.80;99.90
47857;DHT22;33618;49.972;8.242;2022-12-07T19:36:43;4.80;99.90
47857;DHT22;33618;49.972;8.242;2022-12-07T19:39:12;4.70;99.90
47857;DHT22;33618;49.972;8.242;2022-12-07T19:41:42;4.70;99.90
47857;DHT22;33618;49.972;8.242;2022-12-07T19:46:43;4.70;99.90
47857;DHT22;33618;49.972;8.242;2022-12-07T19:49:13;4.60;99.90
47857;DHT22;33618;49.972;8.242;2022-12-07T19:51:44;4.60;99.90
47857;DHT22;33618;49.972;8.242;2022-12-07T19:54:13;4.60;99.90
47857;DHT22;33618;49.972;8.242;2022-12-07T19:56:42;4.60;99.90
47857;DHT22;33618;49.972;8.242;2022-12-07T19:59:10;4.60;99.90